createdAt,value
2017-04-24T00:00:40.044Z,56.90
2017-04-24T00:01:38.227Z,56.90
2017-04-24T00:02:36.416Z,56.90
2017-04-24T00:03:34.548Z,56.60
2017-04-24T00:04:32.734Z,56.10
2017-04-24T00:05:30.488Z,56.10
2017-04-24T00:06:28.169Z,56.70
2017-04-24T00:07:26.335Z,56.90
2017-04-24T00:08:24.438Z,57.00
2017-04-24T00:09:22.553Z,56.70
2017-04-24T00:10:20.353Z,56.70
2017-04-24T00:11:18.094Z,56.70
2017-04-24T00:12:16.188Z,56.20
2017-04-24T00:13:14.312Z,55.90
2017-04-24T00:14:12.480Z,56.10
2017-04-24T00:15:10.632Z,55.90
2017-04-24T00:16:08.759Z,55.90
2017-04-24T00:17:06.873Z,55.90
2017-04-24T00:18:04.684Z,55.90
2017-04-24T00:19:02.881Z,55.50
2017-04-24T00:20:01.088Z,55.60
2017-04-24T00:20:59.268Z,55.50
2017-04-24T00:21:57.005Z,55.50
2017-04-24T00:22:54.735Z,55.30
2017-04-24T00:23:52.912Z,55.60
2017-04-24T00:24:51.009Z,55.60
2017-04-24T00:25:49.193Z,55.30
2017-04-24T00:26:47.028Z,55.30
2017-04-24T00:27:44.747Z,55.40
2017-04-24T00:28:42.817Z,55.60
2017-04-24T00:29:40.977Z,56.00
2017-04-24T00:30:38.731Z,56.00
2017-04-24T00:31:36.791Z,56.20
2017-04-24T00:32:34.515Z,56.20
2017-04-24T00:33:32.289Z,56.40
2017-04-24T00:34:30.421Z,56.60
2017-04-24T00:35:28.219Z,56.60
2017-04-24T00:36:25.956Z,57.00
2017-04-24T00:37:23.726Z,57.00
2017-04-24T00:38:21.849Z,57.00
2017-04-24T00:39:19.912Z,56.60
2017-04-24T00:40:18.085Z,56.70
2017-04-24T00:41:16.189Z,56.60
2017-04-24T00:42:14.433Z,56.30
2017-04-24T00:43:12.608Z,56.50
2017-04-24T00:44:10.819Z,56.10
2017-04-24T00:45:08.632Z,56.10
2017-04-24T00:46:06.761Z,56.40
2017-04-24T00:47:04.876Z,56.70
2017-04-24T00:48:02.972Z,56.80
2017-04-24T00:49:00.696Z,56.80
2017-04-24T00:49:59.195Z,56.70
2017-04-24T00:50:57.029Z,56.70
2017-04-24T00:51:55.158Z,56.30
2017-04-24T00:52:53.197Z,56.30
2017-04-24T00:53:50.908Z,56.30
2017-04-24T00:54:49.042Z,57.30
2017-04-24T00:55:47.350Z,57.70
2017-04-24T00:56:45.480Z,57.50
2017-04-24T00:57:43.817Z,57.90
2017-04-24T00:58:41.912Z,58.00
2017-04-24T00:59:40.048Z,58.10
2017-04-24T01:00:38.284Z,58.20
2017-04-24T01:01:35.976Z,58.20
2017-04-24T01:02:34.449Z,57.80
2017-04-24T01:03:32.648Z,58.00
2017-04-24T01:04:30.832Z,57.80
2017-04-24T01:05:29.068Z,58.20
2017-04-24T01:06:27.168Z,58.20
2017-04-24T01:07:25.325Z,58.10
2017-04-24T01:08:23.468Z,58.10
2017-04-24T01:09:21.185Z,58.10
2017-04-24T01:10:19.324Z,58.60
2017-04-24T01:11:17.360Z,58.40
2017-04-24T01:12:15.532Z,58.30
2017-04-24T01:13:13.660Z,58.00
2017-04-24T01:14:11.786Z,57.60
2017-04-24T01:15:09.981Z,57.30
2017-04-24T01:16:08.036Z,56.90
2017-04-24T01:17:06.165Z,57.10
2017-04-24T01:18:04.249Z,57.10
2017-04-24T01:19:02.428Z,56.70
2017-04-24T01:20:00.500Z,56.70
2017-04-24T01:20:58.667Z,57.10
2017-04-24T01:21:56.812Z,57.10
2017-04-24T01:22:54.899Z,56.90
2017-04-24T01:23:53.109Z,56.80
2017-04-24T01:24:51.210Z,56.80
2017-04-24T01:25:49.016Z,56.70
2017-04-24T01:26:47.165Z,57.30
2017-04-24T01:27:45.005Z,57.30
2017-04-24T01:28:43.139Z,57.90
2017-04-24T01:29:40.887Z,57.90
2017-04-24T01:30:38.655Z,58.00
2017-04-24T01:31:36.780Z,57.90
2017-04-24T01:32:34.937Z,57.60
2017-04-24T01:33:33.109Z,57.50
2017-04-24T01:34:30.932Z,57.50
2017-04-24T01:35:29.141Z,57.50
2017-04-24T01:36:27.009Z,57.90
2017-04-24T01:37:25.657Z,58.80
2017-04-24T01:38:23.565Z,58.80
2017-04-24T01:39:22.145Z,58.30
2017-04-24T01:40:20.090Z,58.30
2017-04-24T01:41:18.680Z,58.70
2017-04-24T01:42:16.858Z,58.80
2017-04-24T01:43:15.001Z,59.50
2017-04-24T01:44:13.161Z,59.50
2017-04-24T01:45:11.120Z,59.50
2017-04-24T01:46:09.512Z,60.20
2017-04-24T01:47:08.277Z,60.30
2017-04-24T01:48:06.501Z,60.50
2017-04-24T01:49:04.325Z,60.50
2017-04-24T01:50:02.538Z,60.20
2017-04-24T01:51:00.646Z,60.80
2017-04-24T01:51:58.801Z,60.90
2017-04-24T01:52:57.074Z,60.50
2017-04-24T01:53:54.793Z,60.50
2017-04-24T01:54:52.979Z,59.50
2017-04-24T01:55:51.671Z,59.20
2017-04-24T01:56:49.944Z,59.10
2017-04-24T01:57:48.073Z,58.80
2017-04-24T01:58:46.298Z,58.80
2017-04-24T01:59:44.040Z,58.30
2017-04-24T02:00:41.831Z,57.90
2017-04-24T02:01:39.634Z,58.00
2017-04-24T02:02:37.853Z,58.20
2017-04-24T02:03:35.589Z,58.20
2017-04-24T02:04:33.681Z,58.30
2017-04-24T02:05:32.205Z,57.70
2017-04-24T02:06:30.300Z,57.50
2017-04-24T02:07:28.389Z,57.00
2017-04-24T02:08:26.611Z,57.30
2017-04-24T02:09:24.901Z,57.50
2017-04-24T02:10:23.339Z,57.70
2017-04-24T02:11:21.673Z,58.80
2017-04-24T02:12:19.501Z,58.80
2017-04-24T02:13:17.777Z,58.70
2017-04-24T02:14:15.917Z,59.20
2017-04-24T02:15:14.087Z,59.10
2017-04-24T02:16:12.229Z,59.10
2017-04-24T02:17:10.841Z,58.80
2017-04-24T02:18:09.053Z,58.20
2017-04-24T02:19:06.798Z,58.20
2017-04-24T02:20:04.693Z,58.70
2017-04-24T02:21:02.780Z,60.60
2017-04-24T02:22:00.937Z,61.60
2017-04-24T02:22:59.041Z,61.20
2017-04-24T02:23:57.166Z,61.00
2017-04-24T02:24:54.909Z,61.00
2017-04-24T02:25:53.440Z,60.10
2017-04-24T02:26:51.189Z,60.10
2017-04-24T02:27:49.301Z,58.80
2017-04-24T02:28:47.041Z,58.80
2017-04-24T02:29:44.740Z,58.10
2017-04-24T02:30:42.649Z,58.00
2017-04-24T02:31:40.420Z,59.00
2017-04-24T02:32:38.485Z,59.10
2017-04-24T02:33:36.255Z,59.20
2017-04-24T02:34:34.407Z,58.50
2017-04-24T02:35:32.261Z,58.50
2017-04-24T02:36:30.137Z,58.40
2017-04-24T02:37:28.277Z,58.10
2017-04-24T02:38:26.062Z,58.10
2017-04-24T02:39:24.140Z,57.90
2017-04-24T02:40:22.341Z,57.80
2017-04-24T02:41:20.546Z,58.30
2017-04-24T02:42:18.657Z,58.60
2017-04-24T02:43:16.765Z,58.90
2017-04-24T02:44:14.874Z,59.70
2017-04-24T02:45:13.321Z,59.10
2017-04-24T02:46:11.389Z,59.10
2017-04-24T02:47:09.521Z,59.10
2017-04-24T02:48:07.674Z,58.70
2017-04-24T02:49:05.453Z,58.70
2017-04-24T02:50:03.951Z,58.40
2017-04-24T02:51:02.073Z,58.30
2017-04-24T02:51:59.877Z,58.30
2017-04-24T02:52:57.954Z,58.40
2017-04-24T02:53:56.064Z,58.40
2017-04-24T02:54:54.179Z,58.30
2017-04-24T02:55:53.102Z,57.80
2017-04-24T02:56:51.205Z,57.40
2017-04-24T02:57:49.330Z,57.30
2017-04-24T02:58:47.416Z,57.90
2017-04-24T02:59:45.492Z,57.80
2017-04-24T03:00:44.058Z,57.40
2017-04-24T03:01:41.829Z,57.40
2017-04-24T03:02:39.934Z,58.10
2017-04-24T03:03:38.028Z,57.80
2017-04-24T03:04:35.839Z,57.80
2017-04-24T03:05:33.643Z,57.70
2017-04-24T03:06:32.206Z,57.60
2017-04-24T03:07:30.279Z,57.40
2017-04-24T03:08:28.391Z,57.30
2017-04-24T03:09:26.162Z,57.30
2017-04-24T03:10:24.361Z,57.40
2017-04-24T03:11:22.523Z,57.40
2017-04-24T03:12:20.632Z,57.40
2017-04-24T03:13:18.693Z,57.40
2017-04-24T03:14:16.446Z,57.40
2017-04-24T03:15:15.369Z,57.40
2017-04-24T03:16:13.493Z,57.10
2017-04-24T03:17:11.572Z,57.40
2017-04-24T03:18:09.742Z,57.20
2017-04-24T03:19:07.949Z,57.50
2017-04-24T03:20:05.751Z,57.50
2017-04-24T03:21:03.861Z,57.60
2017-04-24T03:22:02.029Z,57.30
2017-04-24T03:23:00.106Z,57.60
2017-04-24T03:23:58.196Z,57.30
2017-04-24T03:24:56.347Z,57.20
2017-04-24T03:25:54.581Z,57.30
2017-04-24T03:26:52.328Z,57.30
2017-04-24T03:27:50.106Z,57.60
2017-04-24T03:28:48.202Z,57.50
2017-04-24T03:29:46.266Z,57.40
2017-04-24T03:30:44.702Z,57.20
2017-04-24T03:31:42.820Z,57.10
2017-04-24T03:32:40.551Z,57.10
2017-04-24T03:33:39.012Z,57.60
2017-04-24T03:34:36.687Z,57.60
2017-04-24T03:35:34.477Z,57.50
2017-04-24T03:36:32.634Z,57.30
2017-04-24T03:37:30.354Z,57.30
2017-04-24T03:38:28.444Z,57.30
2017-04-24T03:39:26.677Z,57.90
2017-04-24T03:40:24.917Z,58.20
2017-04-24T03:41:23.588Z,58.60
2017-04-24T03:42:21.794Z,59.10
2017-04-24T03:43:19.954Z,58.80
2017-04-24T03:44:17.691Z,58.80
2017-04-24T03:45:15.476Z,58.50
2017-04-24T03:46:13.549Z,58.60
2017-04-24T03:47:12.002Z,58.40
2017-04-24T03:48:09.734Z,58.40
2017-04-24T03:49:07.921Z,59.30
2017-04-24T03:50:06.158Z,59.20
2017-04-24T03:51:04.259Z,58.70
2017-04-24T03:52:02.016Z,58.70
2017-04-24T03:53:00.090Z,59.60
2017-04-24T03:53:58.266Z,58.90
2017-04-24T03:54:56.419Z,58.50
2017-04-24T03:55:54.176Z,58.50
2017-04-24T03:56:52.294Z,57.90
2017-04-24T03:57:50.520Z,57.80
2017-04-24T03:58:48.612Z,57.90
2017-04-24T03:59:46.825Z,57.60
2017-04-24T04:00:45.042Z,57.70
2017-04-24T04:01:42.890Z,57.70
2017-04-24T04:02:41.084Z,57.50
2017-04-24T04:03:39.290Z,57.40
2017-04-24T04:04:37.109Z,57.40
2017-04-24T04:05:35.273Z,57.70
2017-04-24T04:06:33.338Z,57.60
2017-04-24T04:07:31.443Z,57.80
2017-04-24T04:08:29.505Z,57.90
2017-04-24T04:09:27.606Z,58.10
2017-04-24T04:10:26.145Z,57.80
2017-04-24T04:11:23.893Z,57.80
2017-04-24T04:12:22.131Z,57.60
2017-04-24T04:13:19.941Z,57.60
2017-04-24T04:14:18.013Z,57.80
2017-04-24T04:15:16.349Z,58.10
2017-04-24T04:16:14.524Z,57.80
2017-04-24T04:17:12.705Z,57.30
2017-04-24T04:18:10.512Z,57.30
2017-04-24T04:19:08.717Z,57.30
2017-04-24T04:20:06.930Z,57.30
2017-04-24T04:21:04.765Z,57.30
2017-04-24T04:22:03.041Z,57.50
2017-04-24T04:23:00.801Z,57.50
2017-04-24T04:23:58.894Z,57.00
2017-04-24T04:24:56.652Z,57.00
2017-04-24T04:25:56.093Z,57.00
2017-04-24T04:26:54.216Z,57.40
2017-04-24T04:27:52.381Z,57.10
2017-04-24T04:28:50.884Z,57.50
2017-04-24T04:29:49.030Z,57.70
2017-04-24T04:30:47.196Z,57.90
2017-04-24T04:31:45.321Z,57.90
2017-04-24T04:32:43.459Z,57.90
2017-04-24T04:33:41.732Z,57.90
2017-04-24T04:34:39.844Z,57.80
2017-04-24T04:35:38.091Z,57.80
2017-04-24T04:36:35.784Z,57.80
2017-04-24T04:37:33.904Z,57.50
2017-04-24T04:38:32.042Z,57.40
2017-04-24T04:39:30.135Z,57.10
2017-04-24T04:40:28.039Z,57.00
2017-04-24T04:41:26.272Z,56.60
2017-04-24T04:42:24.500Z,56.50
2017-04-24T04:43:22.593Z,56.60
2017-04-24T04:44:21.030Z,57.20
2017-04-24T04:45:19.149Z,57.20
2017-04-24T04:46:18.284Z,57.20
2017-04-24T04:47:16.928Z,57.20
2017-04-24T04:48:15.046Z,57.10
2017-04-24T04:49:12.869Z,57.10
2017-04-24T04:50:11.054Z,57.30
2017-04-24T04:51:08.756Z,57.30
2017-04-24T04:52:06.921Z,57.40
2017-04-24T04:53:05.097Z,57.30
2017-04-24T04:54:03.660Z,57.00
2017-04-24T04:55:01.469Z,57.00
2017-04-24T04:55:59.654Z,56.70
2017-04-24T04:56:57.837Z,56.30
2017-04-24T04:57:55.613Z,56.30
2017-04-24T04:58:53.755Z,56.50
2017-04-24T04:59:52.316Z,57.10
2017-04-24T05:00:50.713Z,57.10
2017-04-24T05:01:48.573Z,57.10
2017-04-24T05:02:46.802Z,57.20
2017-04-24T05:03:44.911Z,57.20
2017-04-24T05:04:43.228Z,57.40
2017-04-24T05:05:41.717Z,57.30
2017-04-24T05:06:39.438Z,57.30
2017-04-24T05:07:37.492Z,57.90
2017-04-24T05:08:35.553Z,57.90
2017-04-24T05:09:33.688Z,57.70
2017-04-24T05:10:31.877Z,57.80
2017-04-24T05:11:30.049Z,57.50
2017-04-24T05:12:28.166Z,57.60
2017-04-24T05:13:25.909Z,57.60
2017-04-24T05:14:23.678Z,57.60
2017-04-24T05:15:22.245Z,57.60
2017-04-24T05:16:20.633Z,57.70
2017-04-24T05:17:18.396Z,57.70
2017-04-24T05:18:16.505Z,57.70
2017-04-24T05:19:14.266Z,57.80
2017-04-24T05:20:12.503Z,58.00
2017-04-24T05:21:10.602Z,58.00
2017-04-24T05:22:08.377Z,58.10
2017-04-24T05:23:06.205Z,58.00
2017-04-24T05:24:04.005Z,58.10
2017-04-24T05:25:02.113Z,58.70
2017-04-24T05:26:00.637Z,58.50
2017-04-24T05:26:58.725Z,58.60
2017-04-24T05:27:56.878Z,58.20
2017-04-24T05:28:54.648Z,58.20
2017-04-24T05:29:52.397Z,58.30
2017-04-24T05:30:50.313Z,58.50
2017-04-24T05:31:48.382Z,58.80
2017-04-24T05:32:46.441Z,58.60
2017-04-24T05:33:44.540Z,58.90
2017-04-24T05:34:42.670Z,58.70
2017-04-24T05:35:41.234Z,58.90
2017-04-24T05:36:39.024Z,58.90
2017-04-24T05:37:37.090Z,58.60
2017-04-24T05:38:35.193Z,58.30
2017-04-24T05:39:33.270Z,58.20
2017-04-24T05:40:31.429Z,58.10
2017-04-24T05:41:29.548Z,58.20
2017-04-24T05:42:27.636Z,57.60
2017-04-24T05:43:25.757Z,57.50
2017-04-24T05:44:23.821Z,57.20
2017-04-24T05:45:22.013Z,57.20
2017-04-24T05:46:19.745Z,57.00
2017-04-24T05:47:17.493Z,56.90
2017-04-24T05:48:15.256Z,56.80
2017-04-24T05:49:13.684Z,55.70
2017-04-24T05:50:11.920Z,55.70
2017-04-24T05:51:09.762Z,55.70
2017-04-24T05:52:08.177Z,55.90
2017-04-24T05:53:06.252Z,55.70
2017-04-24T05:54:04.411Z,55.90
2017-04-24T05:55:03.001Z,55.70
2017-04-24T05:56:00.717Z,55.70
2017-04-24T05:56:58.882Z,55.70
2017-04-24T05:57:57.048Z,55.50
2017-04-24T05:58:55.181Z,55.40
2017-04-24T05:59:53.018Z,55.40
2017-04-24T06:00:52.236Z,55.80
2017-04-24T06:01:49.972Z,55.80
2017-04-24T06:02:48.056Z,55.80
2017-04-24T06:03:46.640Z,55.90
2017-04-24T06:04:44.480Z,55.90
2017-04-24T06:05:42.715Z,55.80
2017-04-24T06:06:40.921Z,55.70
2017-04-24T06:07:38.653Z,55.70
2017-04-24T06:08:36.901Z,55.70
2017-04-24T06:09:34.673Z,55.70
2017-04-24T06:10:33.246Z,55.50
2017-04-24T06:11:31.033Z,55.50
2017-04-24T06:12:29.236Z,55.20
2017-04-24T06:13:27.354Z,55.30
2017-04-24T06:14:25.540Z,55.50
2017-04-24T06:15:23.712Z,55.40
2017-04-24T06:16:21.808Z,55.30
2017-04-24T06:17:19.685Z,55.30
2017-04-24T06:18:17.531Z,55.50
2017-04-24T06:19:15.640Z,55.20
2017-04-24T06:20:13.860Z,55.80
2017-04-24T06:21:11.634Z,56.00
2017-04-24T06:22:09.522Z,55.80
2017-04-24T06:23:07.986Z,55.10
2017-04-24T06:24:06.173Z,54.90
2017-04-24T06:25:04.389Z,54.80
2017-04-24T06:26:02.171Z,54.80
2017-04-24T06:27:00.324Z,54.90
2017-04-24T06:27:58.164Z,54.90
2017-04-24T06:28:55.981Z,55.00
2017-04-24T06:29:53.741Z,54.90
2017-04-24T06:30:52.208Z,54.60
2017-04-24T06:31:49.937Z,54.60
2017-04-24T06:32:48.013Z,53.80
2017-04-24T06:33:46.147Z,53.80
2017-04-24T06:34:44.340Z,52.80
2017-04-24T06:35:42.318Z,52.80
2017-04-24T06:36:40.596Z,52.90
2017-04-24T06:37:38.761Z,52.30
2017-04-24T06:38:36.921Z,52.30
2017-04-24T06:39:35.001Z,52.10
2017-04-24T06:40:33.216Z,52.10
2017-04-24T06:41:31.085Z,52.20
2017-04-24T06:42:29.180Z,52.30
2017-04-24T06:43:27.254Z,52.20
2017-04-24T06:44:25.394Z,52.30
2017-04-24T06:45:23.645Z,52.10
2017-04-24T06:46:21.852Z,51.80
2017-04-24T06:47:19.651Z,51.80
2017-04-24T06:48:17.401Z,51.30
2017-04-24T06:49:15.637Z,50.90
2017-04-24T06:50:13.425Z,50.90
2017-04-24T06:51:12.301Z,51.00
2017-04-24T06:52:10.491Z,51.20
2017-04-24T06:53:08.655Z,51.00
2017-04-24T06:54:06.429Z,51.10
2017-04-24T06:55:04.613Z,50.30
2017-04-24T06:56:02.736Z,50.40
2017-04-24T06:57:00.545Z,50.40
2017-04-24T06:57:58.765Z,50.20
2017-04-24T06:58:56.921Z,50.20
2017-04-24T06:59:54.701Z,50.20
2017-04-24T07:00:52.509Z,50.40
2017-04-24T07:01:50.618Z,49.90
2017-04-24T07:02:49.756Z,49.90
2017-04-24T07:03:48.289Z,50.10
2017-04-24T07:04:46.053Z,50.10
2017-04-24T07:05:43.837Z,49.70
2017-04-24T07:06:41.976Z,49.70
2017-04-24T07:07:40.102Z,50.40
2017-04-24T07:08:38.220Z,49.80
2017-04-24T07:09:36.334Z,49.30
2017-04-24T07:10:34.550Z,49.30
2017-04-24T07:11:32.724Z,49.20
2017-04-24T07:12:30.680Z,49.20
2017-04-24T07:13:28.784Z,48.70
2017-04-24T07:14:26.872Z,49.30
2017-04-24T07:15:25.472Z,48.50
2017-04-24T07:16:23.230Z,48.50
2017-04-24T07:17:21.375Z,47.30
2017-04-24T07:18:19.521Z,46.70
2017-04-24T07:19:17.653Z,47.50
2017-04-24T07:20:15.832Z,47.50
2017-04-24T07:21:14.373Z,47.70
2017-04-24T07:22:12.464Z,47.10
2017-04-24T07:23:10.545Z,46.80
2017-04-24T07:24:08.694Z,46.60
2017-04-24T07:25:06.890Z,46.60
2017-04-24T07:26:04.997Z,46.60
2017-04-24T07:27:03.476Z,46.80
2017-04-24T07:28:01.625Z,47.20
2017-04-24T07:28:59.792Z,47.30
2017-04-24T07:29:57.578Z,47.30
2017-04-24T07:30:55.454Z,47.60
2017-04-24T07:31:53.570Z,47.30
2017-04-24T07:32:51.715Z,47.70
2017-04-24T07:33:49.848Z,47.70
2017-04-24T07:34:47.629Z,47.70
2017-04-24T07:35:45.441Z,46.40
2017-04-24T07:36:43.578Z,46.40
2017-04-24T07:37:41.324Z,46.40
2017-04-24T07:38:39.412Z,46.90
2017-04-24T07:39:37.537Z,46.60
2017-04-24T07:40:35.986Z,47.30
2017-04-24T07:41:33.766Z,47.30
2017-04-24T07:42:31.934Z,46.40
2017-04-24T07:43:30.086Z,44.80
2017-04-24T07:44:28.205Z,45.20
2017-04-24T07:45:26.326Z,45.30
2017-04-24T07:46:24.078Z,45.30
2017-04-24T07:47:22.217Z,46.90
2017-04-24T07:48:20.322Z,45.60
2017-04-24T07:49:18.423Z,46.10
2017-04-24T07:50:16.988Z,44.50
2017-04-24T07:51:15.090Z,45.20
2017-04-24T07:52:12.896Z,45.20
2017-04-24T07:53:10.654Z,45.30
2017-04-24T07:54:08.826Z,45.00
2017-04-24T07:55:07.425Z,44.90
2017-04-24T07:56:05.568Z,45.10
2017-04-24T07:57:03.661Z,45.00
2017-04-24T07:58:01.804Z,45.70
2017-04-24T07:58:59.969Z,47.00
2017-04-24T07:59:57.743Z,46.90
2017-04-24T08:00:56.069Z,47.70
2017-04-24T08:01:54.189Z,46.80
2017-04-24T08:02:52.301Z,46.20
2017-04-24T08:03:50.083Z,46.20
2017-04-24T08:04:47.817Z,47.50
2017-04-24T08:05:45.665Z,46.70
2017-04-24T08:06:43.737Z,47.70
2017-04-24T08:07:42.265Z,47.70
2017-04-24T08:08:40.528Z,45.00
2017-04-24T08:09:38.655Z,44.40
2017-04-24T08:10:37.137Z,45.40
2017-04-24T08:11:35.594Z,45.80
2017-04-24T08:12:33.673Z,45.90
2017-04-24T08:13:31.786Z,46.40
2017-04-24T08:14:29.517Z,46.40
2017-04-24T08:15:27.769Z,46.70
2017-04-24T08:16:26.523Z,45.90
2017-04-24T08:17:25.145Z,46.60
2017-04-24T08:19:57.192Z,46.30
2017-04-24T08:20:55.520Z,46.10
2017-04-24T08:21:53.664Z,46.20
2017-04-24T08:22:51.852Z,46.70
2017-04-24T08:23:49.945Z,46.90
2017-04-24T08:24:48.096Z,45.50
2017-04-24T08:25:46.249Z,45.60
2017-04-24T08:26:44.441Z,45.70
2017-04-24T08:27:42.551Z,46.20
2017-04-24T08:28:40.302Z,46.20
2017-04-24T08:29:38.489Z,46.70
2017-04-24T08:30:36.692Z,45.50
2017-04-24T08:31:35.182Z,45.60
2017-04-24T08:32:33.390Z,46.30
2017-04-24T08:33:31.885Z,47.20
2017-04-24T08:34:29.635Z,47.20
2017-04-24T08:35:27.468Z,47.00
2017-04-24T08:36:25.321Z,46.00
2017-04-24T08:37:23.492Z,45.90
2017-04-24T08:38:21.723Z,45.00
2017-04-24T08:39:19.868Z,44.80
2017-04-24T08:40:18.036Z,45.30
2017-04-24T08:41:16.162Z,45.10
2017-04-24T08:42:14.300Z,44.20
2017-04-24T08:43:12.381Z,44.40
2017-04-24T08:44:10.497Z,47.30
2017-04-24T08:45:08.333Z,47.30
2017-04-24T08:46:06.448Z,45.70
2017-04-24T08:47:04.614Z,45.90
2017-04-24T08:48:02.762Z,47.10
2017-04-24T08:49:00.873Z,46.30
2017-04-24T08:49:59.278Z,45.90
2017-04-24T08:50:57.454Z,45.50
2017-04-24T08:51:55.536Z,44.80
2017-04-24T08:52:53.700Z,44.20
2017-04-24T08:53:51.823Z,45.20
2017-04-24T08:54:49.961Z,45.10
2017-04-24T08:55:48.492Z,45.90
2017-04-24T08:56:46.624Z,44.20
2017-04-24T08:57:44.365Z,44.20
2017-04-24T08:58:42.465Z,43.90
2017-04-24T08:59:40.580Z,45.30
2017-04-24T09:00:38.925Z,45.50
2017-04-24T09:01:36.781Z,45.50
2017-04-24T09:02:34.915Z,44.70
2017-04-24T09:03:33.177Z,43.40
2017-04-24T09:04:30.962Z,43.40
2017-04-24T09:05:29.129Z,43.00
2017-04-24T09:06:27.261Z,46.60
2017-04-24T09:07:25.363Z,44.00
2017-04-24T09:08:23.542Z,44.00
2017-04-24T09:09:21.648Z,44.90
2017-04-24T09:10:19.823Z,44.30
2017-04-24T09:11:17.565Z,44.30
2017-04-24T09:12:15.729Z,43.90
2017-04-24T09:13:13.877Z,42.30
2017-04-24T09:14:11.990Z,42.90
2017-04-24T09:15:09.806Z,42.90
2017-04-24T09:16:07.922Z,41.60
2017-04-24T09:17:06.094Z,42.00
2017-04-24T09:18:03.849Z,42.10
2017-04-24T09:19:02.006Z,41.70
2017-04-24T09:20:00.105Z,43.40
2017-04-24T09:20:58.677Z,42.40
2017-04-24T09:21:56.798Z,42.00
2017-04-24T09:22:54.526Z,42.00
2017-04-24T09:23:52.619Z,41.40
2017-04-24T09:24:50.704Z,41.00
2017-04-24T09:25:48.516Z,41.00
2017-04-24T09:26:46.633Z,41.80
2017-04-24T09:27:45.133Z,42.90
2017-04-24T09:28:42.866Z,43.00
2017-04-24T09:29:41.082Z,44.10
2017-04-24T09:30:39.288Z,42.80
2017-04-24T09:31:37.409Z,40.70
2017-04-24T09:32:35.225Z,40.60
2017-04-24T09:33:33.816Z,40.60
2017-04-24T09:34:31.930Z,41.00
2017-04-24T09:35:29.728Z,41.00
2017-04-24T09:36:27.830Z,42.40
2017-04-24T09:37:25.923Z,40.20
2017-04-24T09:38:24.044Z,40.20
2017-04-24T09:39:22.215Z,40.50
2017-04-24T09:40:20.730Z,42.20
2017-04-24T09:41:19.201Z,40.10
2017-04-24T09:42:16.945Z,40.10
2017-04-24T09:43:15.076Z,41.50
2017-04-24T09:44:13.281Z,40.10
2017-04-24T09:45:11.102Z,40.10
2017-04-24T09:46:09.225Z,40.40
2017-04-24T09:47:07.335Z,39.80
2017-04-24T09:48:05.473Z,39.30
2017-04-24T09:49:03.589Z,38.90
2017-04-24T09:50:02.013Z,41.40
2017-04-24T09:50:59.811Z,41.40
2017-04-24T09:51:57.969Z,40.50
2017-04-24T09:52:55.754Z,40.60
2017-04-24T09:53:53.914Z,40.30
2017-04-24T09:54:52.091Z,40.40
2017-04-24T09:55:50.305Z,40.40
2017-04-24T09:56:48.076Z,40.40
2017-04-24T09:57:46.137Z,40.80
2017-04-24T09:58:43.932Z,40.80
2017-04-24T09:59:41.650Z,40.10
2017-04-24T10:00:40.204Z,39.60
2017-04-24T10:01:38.393Z,40.20
2017-04-24T10:02:36.582Z,40.70
2017-04-24T10:03:34.757Z,40.90
2017-04-24T10:04:32.909Z,40.10
2017-04-24T10:05:31.153Z,39.60
2017-04-24T10:06:29.280Z,39.70
2017-04-24T10:07:27.441Z,41.30
2017-04-24T10:08:25.232Z,41.20
2017-04-24T10:09:23.366Z,39.60
2017-04-24T10:10:21.806Z,39.40
2017-04-24T10:11:20.010Z,39.60
2017-04-24T10:12:18.220Z,38.10
2017-04-24T10:13:16.483Z,38.20
2017-04-24T10:14:14.771Z,38.80
2017-04-24T10:15:13.029Z,38.00
2017-04-24T10:16:11.243Z,37.10
2017-04-24T10:17:09.325Z,37.20
2017-04-24T10:18:07.429Z,37.50
2017-04-24T10:19:05.501Z,37.00
2017-04-24T10:20:03.692Z,36.10
2017-04-24T10:21:01.884Z,35.80
2017-04-24T10:21:59.612Z,35.80
2017-04-24T10:22:57.330Z,35.50
2017-04-24T10:23:55.481Z,35.10
2017-04-24T10:24:53.619Z,35.70
2017-04-24T10:25:51.821Z,36.90
2017-04-24T10:26:49.597Z,36.90
2017-04-24T10:27:47.671Z,34.80
2017-04-24T10:28:45.433Z,34.80
2017-04-24T10:29:43.188Z,35.20
2017-04-24T10:30:41.833Z,34.20
2017-04-24T10:31:39.526Z,34.30
2017-04-24T10:32:37.286Z,37.30
2017-04-24T10:33:35.709Z,36.90
2017-04-24T10:34:33.797Z,37.10
2017-04-24T10:35:32.185Z,35.70
2017-04-24T10:36:30.377Z,35.90
2017-04-24T10:37:28.893Z,35.30
2017-04-24T10:38:26.641Z,35.30
2017-04-24T10:39:24.783Z,35.00
2017-04-24T10:40:22.961Z,33.90
2017-04-24T10:41:21.152Z,33.90
2017-04-24T10:42:19.329Z,34.20
2017-04-24T10:43:17.459Z,34.90
2017-04-24T10:44:15.562Z,34.10
2017-04-24T10:45:13.333Z,34.10
2017-04-24T10:46:11.109Z,35.20
2017-04-24T10:47:09.229Z,35.10
2017-04-24T10:48:07.413Z,34.40
2017-04-24T10:49:05.555Z,34.50
2017-04-24T10:50:03.397Z,34.50
2017-04-24T10:51:01.138Z,34.30
2017-04-24T10:51:58.888Z,35.00
2017-04-24T10:52:56.624Z,33.90
2017-04-24T10:53:55.172Z,34.00
2017-04-24T10:54:53.320Z,35.00
2017-04-24T10:55:51.481Z,34.90
2017-04-24T10:56:49.631Z,32.40
2017-04-24T10:57:47.741Z,32.70
2017-04-24T10:58:45.857Z,31.20
2017-04-24T10:59:43.965Z,31.80
2017-04-24T11:00:42.662Z,31.30
2017-04-24T11:01:40.899Z,30.70
2017-04-24T11:02:39.074Z,30.60
2017-04-24T11:03:37.177Z,31.30
2017-04-24T11:04:34.942Z,31.40
2017-04-24T11:05:32.810Z,30.50
2017-04-24T11:06:30.883Z,30.00
2017-04-24T11:07:28.981Z,29.40
2017-04-24T11:08:27.093Z,28.80
2017-04-24T11:09:25.243Z,29.30
2017-04-24T11:10:23.532Z,28.80
2017-04-24T11:11:21.329Z,28.80
2017-04-24T11:12:19.472Z,28.70
2017-04-24T11:13:17.271Z,28.70
2017-04-24T11:14:15.435Z,26.60
2017-04-24T11:15:14.055Z,25.60
2017-04-24T11:16:12.172Z,25.10
2017-04-24T11:17:09.947Z,25.10
2017-04-24T11:18:08.138Z,24.00
2017-04-24T11:19:06.312Z,24.30
2017-04-24T11:20:04.526Z,24.20
2017-04-24T11:21:02.671Z,23.30
2017-04-24T11:22:00.815Z,21.80
2017-04-24T11:22:58.558Z,21.80
2017-04-24T11:23:56.326Z,22.40
2017-04-24T11:24:54.470Z,22.20
2017-04-24T11:25:52.717Z,21.40
2017-04-24T11:26:50.451Z,21.30
2017-04-24T11:27:48.624Z,19.60
2017-04-24T11:28:46.782Z,18.80
2017-04-24T11:29:44.949Z,19.30
2017-04-24T11:30:43.430Z,18.50
2017-04-24T11:31:41.169Z,18.50
2017-04-24T11:32:39.301Z,17.20
2017-04-24T11:33:37.815Z,17.80
2017-04-24T11:34:35.954Z,16.50
2017-04-24T11:35:34.120Z,15.50
2017-04-24T11:36:32.334Z,16.60
2017-04-24T11:37:30.483Z,16.70
2017-04-24T11:38:28.682Z,16.30
2017-04-24T11:39:26.797Z,16.20
2017-04-24T11:40:25.000Z,16.30
2017-04-24T11:41:22.762Z,16.30
2017-04-24T11:42:20.950Z,16.00
2017-04-24T11:43:18.714Z,16.00
2017-04-24T11:44:16.821Z,13.70
2017-04-24T11:45:14.649Z,13.70
2017-04-24T11:46:12.795Z,13.60
2017-04-24T11:47:10.926Z,13.90
2017-04-24T11:48:08.741Z,13.90
2017-04-24T11:49:06.697Z,14.60
2017-04-24T11:50:05.317Z,14.40
2017-04-24T11:51:03.408Z,13.60
2017-04-24T11:52:01.121Z,13.60
2017-04-24T11:52:59.270Z,13.70
2017-04-24T11:53:57.050Z,13.70
2017-04-24T11:54:55.129Z,15.50
2017-04-24T11:55:53.366Z,15.20
2017-04-24T11:56:51.521Z,15.10
2017-04-24T11:57:49.663Z,15.80
2017-04-24T11:58:47.778Z,15.40
2017-04-24T11:59:45.549Z,15.40
2017-04-24T12:00:43.682Z,15.40
2017-04-24T12:01:41.873Z,15.10
2017-04-24T12:02:40.053Z,14.00
2017-04-24T12:03:38.211Z,13.90
2017-04-24T12:04:36.323Z,13.60
2017-04-24T12:05:34.141Z,13.60
2017-04-24T12:06:31.965Z,12.00
2017-04-24T12:07:30.172Z,11.50
2017-04-24T12:08:28.427Z,12.10
2017-04-24T12:09:26.278Z,12.10
2017-04-24T12:10:24.561Z,11.60
2017-04-24T12:11:22.734Z,11.40
2017-04-24T12:12:20.859Z,11.80
2017-04-24T12:13:19.032Z,11.40
2017-04-24T12:14:16.825Z,11.40
2017-04-24T12:15:15.532Z,12.30
2017-04-24T12:16:13.293Z,12.30
2017-04-24T12:17:12.477Z,10.40
2017-04-24T12:18:10.221Z,10.40
2017-04-24T12:19:08.045Z,11.50
2017-04-24T12:20:06.214Z,10.40
2017-04-24T12:21:04.360Z,10.70
2017-04-24T12:22:02.841Z,10.70
2017-04-24T12:23:03.157Z,10.40
2017-04-24T12:24:00.899Z,10.40
2017-04-24T12:24:58.968Z,11.00
2017-04-24T12:25:56.780Z,11.00
2017-04-24T12:26:54.529Z,10.70
2017-04-24T12:27:52.294Z,10.10
2017-04-24T12:28:50.076Z,10.40
2017-04-24T12:29:48.254Z,10.60